createdAt,value
2018-03-22T00:01:33.200Z,29.10
2018-03-22T00:04:01.476Z,41.60
2018-03-22T00:06:30.520Z,54.90
2018-03-22T00:08:58.792Z,49.70
2018-03-22T00:11:27.082Z,36.50
2018-03-22T00:13:55.342Z,28.47
2018-03-22T00:16:23.628Z,25.80
2018-03-22T00:18:51.889Z,25.90
2018-03-22T00:21:20.182Z,23.10
2018-03-22T00:23:48.462Z,21.60
2018-03-22T00:26:16.814Z,23.07
2018-03-22T00:28:45.161Z,24.37
2018-03-22T00:31:14.385Z,26.43
2018-03-22T00:33:42.656Z,23.90
2018-03-22T00:36:10.916Z,22.43
2018-03-22T00:38:39.281Z,23.63
2018-03-22T00:41:08.342Z,23.67
2018-03-22T00:43:36.615Z,22.20
2018-03-22T00:46:05.819Z,21.57
2018-03-22T00:48:34.107Z,22.27
2018-03-22T00:51:03.177Z,20.27
2018-03-22T00:53:31.462Z,20.27
2018-03-22T00:55:59.720Z,19.83
2018-03-22T00:58:27.973Z,19.73
2018-03-22T01:00:56.228Z,17.97
2018-03-22T01:03:24.516Z,18.73
2018-03-22T01:05:52.780Z,18.30
2018-03-22T01:08:21.055Z,18.03
2018-03-22T01:10:49.315Z,17.17
2018-03-22T01:13:18.397Z,17.60
2018-03-22T01:15:46.641Z,17.80
2018-03-22T01:18:14.912Z,17.50
2018-03-22T01:20:43.218Z,18.17
2018-03-22T01:23:11.476Z,17.80
2018-03-22T01:25:39.739Z,18.80
2018-03-22T01:28:08.016Z,18.00
2018-03-22T01:30:42.926Z,17.77
2018-03-22T01:33:11.211Z,18.20
2018-03-22T01:35:39.459Z,18.63
2018-03-22T01:38:07.722Z,18.60
2018-03-22T01:40:36.043Z,20.27
2018-03-22T01:43:04.339Z,17.63
2018-03-22T01:45:32.663Z,18.73
2018-03-22T01:48:00.908Z,18.03
2018-03-22T01:50:30.079Z,19.10
2018-03-22T01:53:10.173Z,19.47
2018-03-22T01:55:38.574Z,19.57
2018-03-22T01:58:06.841Z,20.03
2018-03-22T02:00:35.169Z,18.33
2018-03-22T02:03:03.414Z,18.67
2018-03-22T02:05:31.731Z,18.57
2018-03-22T02:07:59.996Z,19.47
2018-03-22T02:10:28.317Z,18.00
2018-03-22T02:12:56.571Z,19.67
2018-03-22T02:15:25.035Z,18.73
2018-03-22T02:17:53.281Z,18.20
2018-03-22T02:20:21.599Z,17.03
2018-03-22T02:22:49.883Z,18.37
2018-03-22T02:25:18.291Z,16.60
2018-03-22T02:27:46.584Z,17.97
2018-03-22T02:30:14.856Z,17.70
2018-03-22T02:32:43.115Z,17.83
2018-03-22T02:35:11.388Z,16.90
2018-03-22T02:37:39.668Z,17.73
2018-03-22T02:40:07.985Z,16.47
2018-03-22T02:42:36.292Z,18.23
2018-03-22T02:45:04.562Z,18.10
2018-03-22T02:47:32.819Z,18.10
2018-03-22T02:50:01.863Z,18.80
2018-03-22T02:52:30.239Z,18.43
2018-03-22T02:54:58.539Z,17.87
2018-03-22T02:57:26.812Z,17.80
2018-03-22T02:59:55.085Z,18.23
2018-03-22T03:02:23.370Z,18.10
2018-03-22T03:04:51.648Z,18.20
2018-03-22T03:07:19.951Z,19.73
2018-03-22T03:09:48.199Z,18.53
2018-03-22T03:12:16.534Z,18.97
2018-03-22T03:14:44.784Z,18.67
2018-03-22T03:17:13.048Z,18.70
2018-03-22T03:19:42.046Z,19.77
2018-03-22T03:22:11.146Z,18.27
2018-03-22T03:24:39.416Z,19.67
2018-03-22T03:27:07.716Z,20.23
2018-03-22T03:29:35.963Z,20.77
2018-03-22T03:32:04.269Z,18.73
2018-03-22T03:34:32.536Z,20.27
2018-03-22T03:37:00.915Z,19.70
2018-03-22T03:39:29.187Z,20.20
2018-03-22T03:41:57.435Z,21.27
2018-03-22T03:44:26.462Z,20.63
2018-03-22T03:46:54.835Z,21.23
2018-03-22T03:49:23.183Z,20.73
2018-03-22T03:51:51.444Z,22.57
2018-03-22T03:54:20.474Z,21.10
2018-03-22T03:56:48.726Z,22.93
2018-03-22T03:59:17.819Z,22.50
2018-03-22T04:01:46.844Z,21.77
2018-03-22T04:04:15.136Z,22.47
2018-03-22T04:06:43.375Z,22.93
2018-03-22T04:09:11.642Z,24.40
2018-03-22T04:11:39.942Z,23.07
2018-03-22T04:14:08.191Z,24.13
2018-03-22T04:16:36.492Z,24.60
2018-03-22T04:19:04.764Z,23.23
2018-03-22T04:21:33.200Z,25.13
2018-03-22T04:24:01.467Z,24.77
2018-03-22T04:26:29.742Z,25.40
2018-03-22T04:28:58.031Z,24.90
2018-03-22T04:31:27.063Z,24.47
2018-03-22T04:33:55.355Z,26.77
2018-03-22T04:36:23.680Z,23.33
2018-03-22T04:38:52.714Z,24.57
2018-03-22T04:41:20.995Z,25.53
2018-03-22T04:43:49.247Z,26.57
2018-03-22T04:46:17.483Z,25.37
2018-03-22T04:48:45.768Z,25.93
2018-03-22T04:51:15.024Z,26.63
2018-03-22T04:53:43.287Z,26.53
2018-03-22T04:56:11.550Z,26.33
2018-03-22T04:58:39.848Z,26.50
2018-03-22T05:01:08.108Z,26.07
2018-03-22T05:03:36.376Z,25.60
2018-03-22T05:06:04.735Z,25.10
2018-03-22T05:08:33.005Z,25.73
2018-03-22T05:11:01.255Z,24.63
2018-03-22T05:13:30.283Z,26.73
2018-03-22T05:15:58.538Z,26.50
2018-03-22T05:18:27.579Z,25.80
2018-03-22T05:20:55.846Z,27.10
2018-03-22T05:23:24.117Z,26.27
2018-03-22T05:25:52.413Z,27.03
2018-03-22T05:28:20.671Z,27.43
2018-03-22T05:30:48.955Z,27.87
2018-03-22T05:33:17.239Z,28.30
2018-03-22T05:35:46.295Z,27.23
2018-03-22T05:38:14.551Z,26.60
2018-03-22T05:40:42.826Z,27.80
2018-03-22T05:43:11.991Z,25.17
2018-03-22T05:45:40.254Z,25.77
2018-03-22T05:48:08.551Z,25.93
2018-03-22T05:50:37.600Z,23.83
2018-03-22T05:53:05.906Z,22.50
2018-03-22T05:55:34.199Z,24.33
2018-03-22T05:58:02.454Z,23.83
2018-03-22T06:00:31.498Z,22.97
2018-03-22T06:02:59.835Z,24.33
2018-03-22T06:05:28.074Z,23.33
2018-03-22T06:07:56.341Z,24.20
2018-03-22T06:10:24.761Z,23.00
2018-03-22T06:12:53.013Z,23.73
2018-03-22T06:15:21.264Z,24.97
2018-03-22T06:17:49.521Z,24.90
2018-03-22T06:20:17.904Z,27.33
2018-03-22T06:22:46.180Z,23.23
2018-03-22T06:25:14.442Z,27.57
2018-03-22T06:27:42.715Z,26.40
2018-03-22T06:30:10.975Z,26.30
2018-03-22T06:32:40.140Z,25.60
2018-03-22T06:35:08.395Z,28.27
2018-03-22T06:37:36.687Z,27.83
2018-03-22T06:40:04.979Z,31.27
2018-03-22T06:42:33.236Z,31.97
2018-03-22T06:45:01.500Z,29.30
2018-03-22T06:47:29.843Z,27.80
2018-03-22T06:49:58.107Z,32.07
2018-03-22T06:52:26.384Z,31.83
2018-03-22T06:54:55.391Z,29.67
2018-03-22T06:57:23.786Z,31.33
2018-03-22T06:59:52.146Z,31.17
2018-03-22T07:02:20.511Z,32.97
2018-03-22T07:04:48.961Z,31.07
2018-03-22T07:07:17.236Z,31.90
2018-03-22T07:09:45.515Z,33.37
2018-03-22T07:12:13.821Z,30.20
2018-03-22T07:14:42.812Z,34.50
2018-03-22T07:17:11.100Z,35.40
2018-03-22T07:19:39.399Z,32.23
2018-03-22T07:22:07.653Z,30.00
2018-03-22T07:24:35.896Z,28.00
2018-03-22T07:27:04.941Z,31.43
2018-03-22T07:29:33.183Z,29.83
2018-03-22T07:32:01.453Z,28.07
2018-03-22T07:34:29.711Z,25.00
2018-03-22T07:36:58.932Z,26.80
2018-03-22T07:39:27.945Z,28.80
2018-03-22T07:41:56.354Z,27.97
2018-03-22T07:44:24.603Z,25.00
2018-03-22T07:46:52.874Z,26.10
2018-03-22T07:49:21.128Z,24.20
2018-03-22T07:51:49.431Z,26.03
2018-03-22T07:54:18.437Z,26.20
2018-03-22T07:56:46.788Z,26.07
2018-03-22T07:59:15.107Z,24.30
2018-03-22T08:01:44.138Z,26.23
2018-03-22T08:04:12.415Z,26.03
2018-03-22T08:06:40.683Z,25.73
2018-03-22T08:09:08.939Z,27.20
2018-03-22T08:11:37.950Z,23.90
2018-03-22T08:14:06.311Z,26.87
2018-03-22T08:16:34.588Z,25.97
2018-03-22T08:19:02.888Z,27.10
2018-03-22T08:21:31.322Z,26.00
2018-03-22T08:23:59.563Z,27.13
2018-03-22T08:26:27.839Z,25.93
2018-03-22T08:28:56.138Z,24.37
2018-03-22T08:31:24.412Z,28.77
2018-03-22T08:33:52.703Z,27.93
2018-03-22T08:36:21.743Z,27.53
2018-03-22T08:38:50.061Z,26.50
2018-03-22T08:41:18.318Z,26.30
2018-03-22T08:43:46.608Z,27.23
2018-03-22T08:46:14.917Z,27.27
2018-03-22T08:48:43.164Z,27.90
2018-03-22T08:51:11.443Z,27.67
2018-03-22T08:53:40.468Z,25.90
2018-03-22T08:56:08.743Z,26.70
2018-03-22T08:58:37.162Z,26.13
2018-03-22T09:01:05.647Z,26.50
2018-03-22T09:03:33.956Z,28.30
2018-03-22T09:06:03.001Z,28.43
2018-03-22T09:08:31.362Z,28.40
2018-03-22T09:10:59.806Z,26.33
2018-03-22T09:13:28.843Z,29.80
2018-03-22T09:15:57.104Z,27.33
2018-03-22T09:18:25.604Z,26.30
2018-03-22T09:20:53.891Z,30.57
2018-03-22T09:23:22.167Z,31.53
2018-03-22T09:25:50.436Z,28.40
2018-03-22T09:28:18.738Z,27.53
2018-03-22T09:30:47.756Z,29.20
2018-03-22T09:33:16.060Z,29.67
2018-03-22T09:35:44.306Z,30.93
2018-03-22T09:38:12.607Z,29.60
2018-03-22T09:40:40.864Z,30.77
2018-03-22T09:43:09.114Z,30.27
2018-03-22T09:45:38.164Z,31.50
2018-03-22T09:48:06.471Z,31.47
2018-03-22T09:50:34.749Z,29.37
2018-03-22T09:53:02.981Z,30.87
2018-03-22T09:55:31.243Z,30.33
2018-03-22T09:57:59.521Z,30.43
2018-03-22T10:00:27.791Z,27.33
2018-03-22T10:02:56.160Z,25.30
2018-03-22T10:05:24.448Z,25.77
2018-03-22T10:07:52.712Z,22.57
2018-03-22T10:10:20.999Z,25.47
2018-03-22T10:12:49.267Z,22.70
2018-03-22T10:15:17.573Z,22.93
2018-03-22T10:17:45.824Z,23.07
2018-03-22T10:20:14.153Z,22.30
2018-03-22T10:22:42.506Z,21.60
2018-03-22T10:25:10.777Z,21.70
2018-03-22T10:27:39.023Z,20.57
2018-03-22T10:30:07.276Z,21.33
2018-03-22T10:32:35.532Z,20.63
2018-03-22T10:35:04.581Z,20.13
2018-03-22T10:37:32.853Z,18.20
2018-03-22T10:40:01.179Z,20.13
2018-03-22T10:42:29.431Z,19.80
2018-03-22T10:44:57.711Z,20.33
2018-03-22T10:47:25.987Z,18.73
2018-03-22T10:49:54.275Z,19.30
2018-03-22T10:52:23.406Z,17.10
2018-03-22T10:54:51.681Z,21.40
2018-03-22T10:57:19.951Z,21.73
2018-03-22T10:59:48.497Z,20.97
2018-03-22T11:02:16.796Z,19.47
2018-03-22T11:04:45.248Z,20.37
2018-03-22T11:07:14.285Z,19.57
2018-03-22T11:09:42.563Z,21.97
2018-03-22T11:12:10.815Z,22.03
2018-03-22T11:14:39.201Z,21.13
2018-03-22T11:17:07.488Z,18.53
2018-03-22T11:19:35.782Z,20.63
2018-03-22T11:22:04.039Z,20.80
2018-03-22T11:24:32.311Z,20.30
2018-03-22T11:27:00.571Z,19.33
2018-03-22T11:29:28.959Z,21.23
2018-03-22T11:31:57.215Z,18.77
2018-03-22T11:34:26.255Z,21.13
2018-03-22T11:36:54.497Z,20.73
2018-03-22T11:39:22.763Z,22.23
2018-03-22T11:41:51.007Z,22.57
2018-03-22T11:44:20.094Z,22.27
2018-03-22T11:46:48.355Z,22.17
2018-03-22T11:49:16.653Z,20.20
2018-03-22T11:51:45.456Z,24.30
2018-03-22T11:54:14.582Z,21.60
2018-03-22T11:56:42.872Z,22.93
2018-03-22T11:59:11.116Z,21.67
2018-03-22T12:01:39.387Z,21.30
2018-03-22T12:04:07.639Z,24.73
2018-03-22T12:06:36.667Z,22.20
2018-03-22T12:09:04.944Z,24.83
2018-03-22T12:11:33.342Z,22.67
2018-03-22T12:14:01.564Z,24.07
2018-03-22T12:16:30.575Z,24.90
2018-03-22T12:18:58.870Z,22.53
2018-03-22T12:21:27.124Z,23.97
2018-03-22T12:23:55.459Z,22.93
2018-03-22T12:26:23.738Z,23.60
2018-03-22T12:28:52.027Z,23.47
2018-03-22T12:31:21.061Z,24.37
2018-03-22T12:33:49.332Z,22.53
2018-03-22T12:36:17.600Z,21.60
2018-03-22T12:38:45.867Z,20.67
2018-03-22T12:41:14.153Z,22.20
2018-03-22T12:43:42.473Z,22.73
2018-03-22T12:46:10.719Z,23.43
2018-03-22T12:48:38.999Z,21.37
2018-03-22T12:51:07.256Z,22.53
2018-03-22T12:53:35.536Z,21.30
2018-03-22T12:56:03.797Z,22.00
2018-03-22T12:58:32.094Z,20.53
2018-03-22T13:01:00.387Z,20.20
2018-03-22T13:03:28.757Z,22.07
2018-03-22T13:05:57.277Z,21.27
2018-03-22T13:08:25.533Z,18.60
2018-03-22T13:10:53.793Z,19.27
2018-03-22T13:13:22.059Z,19.43
2018-03-22T13:15:50.339Z,19.27
2018-03-22T13:18:18.607Z,17.07
2018-03-22T13:20:46.915Z,18.23
2018-03-22T13:23:15.172Z,20.07
2018-03-22T13:25:43.455Z,18.00
2018-03-22T13:28:11.700Z,18.77
2018-03-22T13:30:39.975Z,18.27
2018-03-22T13:33:08.251Z,18.97
2018-03-22T13:35:36.526Z,20.63
2018-03-22T13:38:04.775Z,18.73
2018-03-22T13:40:33.068Z,19.50
2018-03-22T13:43:01.324Z,19.57
2018-03-22T13:45:29.767Z,20.67
2018-03-22T13:47:58.271Z,19.93
2018-03-22T13:50:27.268Z,19.83
2018-03-22T13:52:55.547Z,20.40
2018-03-22T13:55:23.817Z,21.23
2018-03-22T13:57:52.387Z,18.57
2018-03-22T14:00:21.491Z,19.77
2018-03-22T14:02:49.747Z,19.47
2018-03-22T14:05:18.047Z,17.53
2018-03-22T14:07:46.305Z,18.93
2018-03-22T14:10:15.432Z,19.73
2018-03-22T14:12:43.754Z,19.67
2018-03-22T14:15:12.012Z,22.10
2018-03-22T14:17:40.283Z,18.97
2018-03-22T14:20:08.576Z,20.47
2018-03-22T14:22:36.867Z,19.70
2018-03-22T14:25:05.922Z,19.40
2018-03-22T14:27:34.216Z,20.00
2018-03-22T14:30:02.617Z,19.90
2018-03-22T14:32:31.671Z,20.33
2018-03-22T14:34:59.928Z,18.53
2018-03-22T14:37:28.285Z,20.27
2018-03-22T14:39:57.447Z,20.77
2018-03-22T14:42:25.737Z,21.97
2018-03-22T14:44:54.074Z,21.83
2018-03-22T14:47:22.387Z,21.03
2018-03-22T14:49:50.618Z,21.00
2018-03-22T14:52:18.944Z,19.67
2018-03-22T14:54:48.057Z,19.97
2018-03-22T14:57:16.349Z,20.00
2018-03-22T14:59:44.632Z,20.57
2018-03-22T15:02:12.915Z,19.57
2018-03-22T15:04:41.233Z,20.23
2018-03-22T15:07:10.292Z,18.33
2018-03-22T15:09:38.561Z,19.53
2018-03-22T15:12:06.816Z,19.40
2018-03-22T15:14:35.238Z,18.17
2018-03-22T15:17:04.285Z,17.83
2018-03-22T15:19:32.549Z,18.43
2018-03-22T15:22:00.818Z,17.23
2018-03-22T15:24:29.276Z,17.37
2018-03-22T15:26:59.067Z,16.53
2018-03-22T15:29:27.397Z,17.47
2018-03-22T15:31:55.654Z,18.13
2018-03-22T15:34:24.119Z,17.17
2018-03-22T15:36:52.396Z,17.23
2018-03-22T15:39:21.495Z,18.90
2018-03-22T15:41:50.588Z,18.80
2018-03-22T15:44:19.651Z,16.77
2018-03-22T15:46:48.082Z,18.77
2018-03-22T15:49:16.369Z,16.90
2018-03-22T15:51:44.638Z,18.97
2018-03-22T15:54:12.901Z,20.13
2018-03-22T15:56:42.970Z,18.87
2018-03-22T15:59:11.212Z,18.03
2018-03-22T16:01:39.467Z,20.03
2018-03-22T16:04:07.739Z,18.13
2018-03-22T16:06:37.567Z,18.77
2018-03-22T16:09:05.845Z,19.20
2018-03-22T16:11:34.124Z,17.70
2018-03-22T16:14:02.498Z,16.63
2018-03-22T16:16:31.487Z,16.97
2018-03-22T16:18:59.809Z,14.83
2018-03-22T16:21:28.070Z,16.03
2018-03-22T16:23:56.411Z,15.47
2018-03-22T16:26:24.668Z,14.43
2018-03-22T16:28:52.964Z,14.70
2018-03-22T16:31:21.296Z,13.47
2018-03-22T16:33:49.522Z,13.23
2018-03-22T16:36:17.796Z,13.30
2018-03-22T16:38:46.068Z,13.33
2018-03-22T16:41:14.370Z,13.10
2018-03-22T16:43:42.682Z,12.90
2018-03-22T16:46:11.914Z,13.80
2018-03-22T16:48:40.314Z,12.80
2018-03-22T16:51:08.600Z,12.87
2018-03-22T16:53:36.978Z,12.43
2018-03-22T16:56:05.267Z,12.80
2018-03-22T16:58:34.316Z,13.60
2018-03-22T17:01:02.610Z,13.37
2018-03-22T17:03:30.859Z,12.60
2018-03-22T17:05:59.184Z,12.70
2018-03-22T17:08:27.427Z,13.73
2018-03-22T17:10:55.735Z,13.60
2018-03-22T17:13:23.986Z,12.87
2018-03-22T17:15:52.252Z,12.60
2018-03-22T17:18:20.523Z,12.43
2018-03-22T17:20:48.827Z,11.70
2018-03-22T17:23:17.088Z,12.47
2018-03-22T17:25:45.490Z,11.87
2018-03-22T17:28:13.787Z,11.97
2018-03-22T17:30:42.085Z,13.03
2018-03-22T17:33:10.392Z,13.40
2018-03-22T17:35:38.675Z,12.73
2018-03-22T17:38:08.546Z,13.73
2018-03-22T17:40:36.840Z,13.83
2018-03-22T17:43:05.134Z,14.00
2018-03-22T17:45:33.411Z,15.03
2018-03-22T17:48:01.753Z,16.10
2018-03-22T17:50:30.035Z,15.33
2018-03-22T17:53:00.631Z,16.87
2018-03-22T17:55:34.641Z,15.60
2018-03-22T17:58:04.788Z,14.40
2018-03-22T18:00:47.102Z,14.47
2018-03-22T18:03:15.416Z,13.33
2018-03-22T18:05:43.698Z,13.93
2018-03-22T18:10:47.270Z,13.70
2018-03-22T18:13:15.582Z,14.70
2018-03-22T18:15:44.627Z,14.97
2018-03-22T18:18:12.876Z,14.90
2018-03-22T18:20:41.151Z,14.00
2018-03-22T18:23:09.490Z,14.17
2018-03-22T18:25:37.765Z,14.17
2018-03-22T18:28:06.068Z,14.83
2018-03-22T18:30:34.419Z,14.70
2018-03-22T18:33:02.694Z,17.07
2018-03-22T18:35:30.987Z,16.30
2018-03-22T18:37:59.254Z,18.33
2018-03-22T18:40:27.563Z,16.80
2018-03-22T18:42:55.848Z,19.40
2018-03-22T18:45:24.130Z,18.93
2018-03-22T18:47:52.398Z,19.63
2018-03-22T18:50:20.684Z,19.60
2018-03-22T18:52:48.972Z,19.40
2018-03-22T18:55:17.351Z,20.87
2018-03-22T18:57:45.648Z,20.43
2018-03-22T19:00:13.924Z,22.93
2018-03-22T19:02:42.198Z,21.83
2018-03-22T19:05:10.499Z,22.37
2018-03-22T19:07:39.556Z,23.70
2018-03-22T19:10:07.865Z,24.10
2018-03-22T19:12:36.924Z,22.53
2018-03-22T19:15:05.991Z,24.50
2018-03-22T19:17:34.278Z,22.87
2018-03-22T19:20:02.544Z,23.13
2018-03-22T19:22:30.833Z,25.97
2018-03-22T19:24:59.129Z,27.07
2018-03-22T19:27:27.401Z,29.40
2018-03-22T19:29:55.687Z,26.87
2018-03-22T19:32:23.949Z,26.60
2018-03-22T19:34:52.191Z,27.73
2018-03-22T19:37:20.444Z,27.00
2018-03-22T19:39:48.722Z,25.87
2018-03-22T19:42:16.996Z,25.63
2018-03-22T19:44:45.365Z,27.17
2018-03-22T19:47:13.632Z,25.60
2018-03-22T19:49:41.915Z,22.77
2018-03-22T19:52:10.211Z,18.60
2018-03-22T19:54:38.512Z,18.30
2018-03-22T19:57:06.780Z,18.20
2018-03-22T19:59:35.062Z,17.87
2018-03-22T20:02:05.004Z,15.13
2018-03-22T20:04:33.294Z,13.40
2018-03-22T20:07:01.574Z,11.97
2018-03-22T20:09:29.993Z,10.57
2018-03-22T20:11:59.078Z,9.87
2018-03-22T20:14:27.367Z,9.97
2018-03-22T20:16:55.681Z,9.60
2018-03-22T20:19:24.711Z,10.07
2018-03-22T20:21:53.006Z,9.80
2018-03-22T20:24:21.269Z,10.60
2018-03-22T20:26:49.539Z,10.07
2018-03-22T20:29:17.872Z,10.60
2018-03-22T20:31:47.099Z,11.00
2018-03-22T20:34:15.382Z,9.63
2018-03-22T20:36:43.787Z,10.83
2018-03-22T20:39:12.049Z,10.63
2018-03-22T20:41:40.338Z,11.80
2018-03-22T20:44:08.587Z,10.07
2018-03-22T20:46:36.927Z,11.03
2018-03-22T20:49:05.266Z,10.90
2018-03-22T20:51:33.555Z,10.43
2018-03-22T20:54:02.048Z,10.43
2018-03-22T20:56:30.424Z,12.20
2018-03-22T20:58:58.703Z,11.43
2018-03-22T21:01:28.149Z,11.37
2018-03-22T21:03:57.486Z,12.93
2018-03-22T21:06:25.840Z,12.60
2018-03-22T21:08:54.188Z,12.87
2018-03-22T21:11:23.192Z,13.73
2018-03-22T21:13:51.490Z,12.67
2018-03-22T21:16:19.800Z,13.50
2018-03-22T21:18:48.083Z,14.10
2018-03-22T21:21:17.119Z,13.50
2018-03-22T21:23:45.425Z,13.63
2018-03-22T21:26:13.686Z,13.67
2018-03-22T21:28:41.950Z,12.73
2018-03-22T21:31:10.222Z,13.70
2018-03-22T21:33:38.695Z,13.17
2018-03-22T21:36:07.180Z,13.30
2018-03-22T21:38:35.584Z,13.53
2018-03-22T21:41:03.831Z,15.10
2018-03-22T21:43:32.119Z,14.13
2018-03-22T21:46:00.385Z,15.83
2018-03-22T21:48:28.757Z,14.73
2018-03-22T21:51:00.019Z,14.70
2018-03-22T21:53:28.339Z,14.57
2018-03-22T21:55:57.515Z,17.13
2018-03-22T21:58:25.770Z,15.00
2018-03-22T22:00:54.037Z,15.77
2018-03-22T22:03:22.304Z,16.10
2018-03-22T22:05:50.578Z,16.10
2018-03-22T22:08:18.896Z,16.63
2018-03-22T22:10:47.118Z,16.60
2018-03-22T22:13:15.376Z,17.33
2018-03-22T22:15:43.642Z,19.87
2018-03-22T22:18:11.904Z,19.03
2018-03-22T22:20:40.270Z,20.67
2018-03-22T22:23:08.521Z,20.03
2018-03-22T22:25:36.774Z,20.43
2018-03-22T22:28:05.059Z,22.07
2018-03-22T22:30:33.332Z,21.13
2018-03-22T22:33:01.599Z,22.70
2018-03-22T22:35:29.852Z,22.03
2018-03-22T22:37:58.105Z,21.07
2018-03-22T22:40:27.288Z,23.67
2018-03-22T22:42:55.532Z,22.93
2018-03-22T22:45:23.789Z,25.40
2018-03-22T22:47:52.167Z,25.70
2018-03-22T22:50:20.509Z,25.63
2018-03-22T22:52:49.694Z,26.30
2018-03-22T22:55:17.966Z,27.10
2018-03-22T22:57:47.000Z,28.67
2018-03-22T23:00:15.271Z,28.87
2018-03-22T23:02:43.562Z,29.33
2018-03-22T23:05:11.860Z,29.47
2018-03-22T23:07:40.174Z,31.10
2018-03-22T23:10:08.425Z,31.87
2018-03-22T23:12:38.212Z,32.90
2018-03-22T23:15:06.444Z,33.77
2018-03-22T23:17:34.727Z,34.00
2018-03-22T23:20:03.018Z,33.73
2018-03-22T23:22:31.302Z,34.70
2018-03-22T23:24:59.544Z,35.17
2018-03-22T23:27:27.801Z,33.53
2018-03-22T23:29:56.798Z,36.83
2018-03-22T23:32:25.836Z,35.67
2018-03-22T23:34:54.070Z,37.37
2018-03-22T23:37:22.317Z,38.57
2018-03-22T23:39:50.557Z,37.83
2018-03-22T23:42:18.793Z,37.87
2018-03-22T23:44:47.049Z,39.50
2018-03-22T23:47:16.102Z,38.33
2018-03-22T23:49:44.417Z,39.50
2018-03-22T23:52:13.430Z,37.93
2018-03-22T23:54:41.677Z,40.17
2018-03-22T23:57:09.918Z,40.77
2018-03-22T23:59:38.157Z,40.67
